sensor_id;sensor_type;location;lat;lon;timestamp;P1;durP1;ratioP1;P2;durP2;ratioP2
39128;SDS011;24864;49.940;19.770;2022-07-05T00:01:47;13.88;;;9.93;;
39128;SDS011;24864;49.940;19.770;2022-07-05T00:04:15;17.08;;;10.45;;
39128;SDS011;24864;49.940;19.770;2022-07-05T00:06:43;15.15;;;11.02;;
39128;SDS011;24864;49.940;19.770;2022-07-05T00:11:54;14.20;;;8.93;;
39128;SDS011;24864;49.940;19.770;2022-07-05T00:14:22;11.18;;;9.27;;
39128;SDS011;24864;49.940;19.770;2022-07-05T00:16:50;8.82;;;7.93;;
39128;SDS011;24864;49.940;19.770;2022-07-05T00:19:18;9.93;;;8.13;;
39128;SDS011;24864;49.940;19.770;2022-07-05T00:21:46;11.15;;;7.88;;
39128;SDS011;24864;49.940;19.770;2022-07-05T00:24:14;10.15;;;7.60;;
39128;SDS011;24864;49.940;19.770;2022-07-05T00:26:43;10.90;;;8.40;;
39128;SDS011;24864;49.940;19.770;2022-07-05T00:29:11;9.02;;;7.78;;
39128;SDS011;24864;49.940;19.770;2022-07-05T00:31:39;11.45;;;8.93;;
39128;SDS011;24864;49.940;19.770;2022-07-05T00:34:07;13.45;;;7.93;;
39128;SDS011;24864;49.940;19.770;2022-07-05T00:36:35;9.75;;;7.65;;
39128;SDS011;24864;49.940;19.770;2022-07-05T00:39:04;8.98;;;8.07;;
39128;SDS011;24864;49.940;19.770;2022-07-05T00:41:32;9.38;;;8.38;;
39128;SDS011;24864;49.940;19.770;2022-07-05T00:44:02;12.38;;;8.18;;
39128;SDS011;24864;49.940;19.770;2022-07-05T00:49:00;10.68;;;8.77;;
39128;SDS011;24864;49.940;19.770;2022-07-05T00:51:29;9.48;;;8.43;;
39128;SDS011;24864;49.940;19.770;2022-07-05T00:53:58;12.82;;;9.27;;
39128;SDS011;24864;49.940;19.770;2022-07-05T00:56:27;12.02;;;8.70;;
39128;SDS011;24864;49.940;19.770;2022-07-05T00:58:55;9.82;;;8.30;;
39128;SDS011;24864;49.940;19.770;2022-07-05T01:01:24;11.77;;;9.57;;
39128;SDS011;24864;49.940;19.770;2022-07-05T01:03:53;14.23;;;8.63;;
39128;SDS011;24864;49.940;19.770;2022-07-05T01:06:21;15.15;;;8.85;;
39128;SDS011;24864;49.940;19.770;2022-07-05T01:08:50;13.43;;;8.63;;
39128;SDS011;24864;49.940;19.770;2022-07-05T01:11:18;11.70;;;8.23;;
39128;SDS011;24864;49.940;19.770;2022-07-05T01:13:46;9.07;;;7.57;;
39128;SDS011;24864;49.940;19.770;2022-07-05T01:16:14;11.73;;;7.47;;
39128;SDS011;24864;49.940;19.770;2022-07-05T01:18:44;10.48;;;8.07;;
39128;SDS011;24864;49.940;19.770;2022-07-05T01:21:12;8.73;;;6.65;;
39128;SDS011;24864;49.940;19.770;2022-07-05T01:23:46;13.18;;;7.45;;
39128;SDS011;24864;49.940;19.770;2022-07-05T01:26:15;7.25;;;5.25;;
39128;SDS011;24864;49.940;19.770;2022-07-05T01:28:43;10.98;;;5.57;;
39128;SDS011;24864;49.940;19.770;2022-07-05T01:31:11;7.20;;;5.05;;
39128;SDS011;24864;49.940;19.770;2022-07-05T01:33:39;7.25;;;6.15;;
39128;SDS011;24864;49.940;19.770;2022-07-05T01:36:08;8.85;;;5.43;;
39128;SDS011;24864;49.940;19.770;2022-07-05T01:41:09;7.85;;;7.00;;
39128;SDS011;24864;49.940;19.770;2022-07-05T01:43:37;10.18;;;6.70;;
39128;SDS011;24864;49.940;19.770;2022-07-05T01:46:05;8.02;;;7.28;;
39128;SDS011;24864;49.940;19.770;2022-07-05T01:48:37;9.02;;;6.00;;
39128;SDS011;24864;49.940;19.770;2022-07-05T01:51:07;12.68;;;6.70;;
39128;SDS011;24864;49.940;19.770;2022-07-05T01:53:40;9.38;;;7.05;;
39128;SDS011;24864;49.940;19.770;2022-07-05T01:56:12;10.35;;;7.38;;
39128;SDS011;24864;49.940;19.770;2022-07-05T01:58:40;7.72;;;6.93;;
39128;SDS011;24864;49.940;19.770;2022-07-05T02:01:09;8.25;;;6.43;;
39128;SDS011;24864;49.940;19.770;2022-07-05T02:03:37;8.30;;;6.43;;
39128;SDS011;24864;49.940;19.770;2022-07-05T02:06:22;6.80;;;5.80;;
39128;SDS011;24864;49.940;19.770;2022-07-05T02:08:50;7.38;;;5.40;;
39128;SDS011;24864;49.940;19.770;2022-07-05T02:11:19;11.52;;;5.57;;
39128;SDS011;24864;49.940;19.770;2022-07-05T02:13:47;7.47;;;5.75;;
39128;SDS011;24864;49.940;19.770;2022-07-05T02:16:15;6.43;;;5.78;;
39128;SDS011;24864;49.940;19.770;2022-07-05T02:18:43;7.63;;;5.50;;
39128;SDS011;24864;49.940;19.770;2022-07-05T02:21:11;9.60;;;6.10;;
39128;SDS011;24864;49.940;19.770;2022-07-05T02:23:40;9.95;;;5.82;;
39128;SDS011;24864;49.940;19.770;2022-07-05T02:26:08;10.82;;;5.53;;
39128;SDS011;24864;49.940;19.770;2022-07-05T02:28:37;6.45;;;5.82;;
39128;SDS011;24864;49.940;19.770;2022-07-05T02:31:06;5.95;;;5.35;;
39128;SDS011;24864;49.940;19.770;2022-07-05T02:33:35;8.40;;;7.10;;
39128;SDS011;24864;49.940;19.770;2022-07-05T02:36:06;9.57;;;6.03;;
39128;SDS011;24864;49.940;19.770;2022-07-05T02:38:36;6.55;;;5.95;;
39128;SDS011;24864;49.940;19.770;2022-07-05T02:41:04;7.32;;;6.03;;
39128;SDS011;24864;49.940;19.770;2022-07-05T02:43:33;6.40;;;5.28;;
39128;SDS011;24864;49.940;19.770;2022-07-05T02:46:04;7.55;;;6.13;;
39128;SDS011;24864;49.940;19.770;2022-07-05T02:48:33;7.03;;;5.68;;
39128;SDS011;24864;49.940;19.770;2022-07-05T02:51:03;13.80;;;6.35;;
39128;SDS011;24864;49.940;19.770;2022-07-05T02:53:31;9.48;;;6.45;;
39128;SDS011;24864;49.940;19.770;2022-07-05T02:56:00;7.00;;;5.72;;
39128;SDS011;24864;49.940;19.770;2022-07-05T02:58:29;9.75;;;6.00;;
39128;SDS011;24864;49.940;19.770;2022-07-05T03:00:56;6.55;;;5.75;;
39128;SDS011;24864;49.940;19.770;2022-07-05T03:03:26;6.07;;;5.47;;
39128;SDS011;24864;49.940;19.770;2022-07-05T03:05:54;7.20;;;6.50;;
39128;SDS011;24864;49.940;19.770;2022-07-05T03:08:22;12.95;;;6.80;;
39128;SDS011;24864;49.940;19.770;2022-07-05T03:10:50;6.80;;;5.80;;
39128;SDS011;24864;49.940;19.770;2022-07-05T03:13:18;7.25;;;5.70;;
39128;SDS011;24864;49.940;19.770;2022-07-05T03:15:46;8.90;;;6.55;;
39128;SDS011;24864;49.940;19.770;2022-07-05T03:18:14;7.10;;;6.35;;
39128;SDS011;24864;49.940;19.770;2022-07-05T03:20:43;7.70;;;6.30;;
39128;SDS011;24864;49.940;19.770;2022-07-05T03:23:11;6.35;;;5.78;;
39128;SDS011;24864;49.940;19.770;2022-07-05T03:25:39;9.25;;;6.47;;
39128;SDS011;24864;49.940;19.770;2022-07-05T03:28:08;7.35;;;6.53;;
39128;SDS011;24864;49.940;19.770;2022-07-05T03:30:36;8.82;;;6.38;;
39128;SDS011;24864;49.940;19.770;2022-07-05T03:33:03;10.00;;;7.18;;
39128;SDS011;24864;49.940;19.770;2022-07-05T03:35:32;8.43;;;7.15;;
39128;SDS011;24864;49.940;19.770;2022-07-05T03:38:01;14.10;;;6.80;;
39128;SDS011;24864;49.940;19.770;2022-07-05T03:40:29;8.85;;;7.22;;
39128;SDS011;24864;49.940;19.770;2022-07-05T03:42:57;9.73;;;6.85;;
39128;SDS011;24864;49.940;19.770;2022-07-05T03:45:25;12.02;;;7.47;;
39128;SDS011;24864;49.940;19.770;2022-07-05T03:47:54;9.75;;;7.47;;
39128;SDS011;24864;49.940;19.770;2022-07-05T03:50:38;9.90;;;8.07;;
39128;SDS011;24864;49.940;19.770;2022-07-05T03:53:07;10.68;;;7.82;;
39128;SDS011;24864;49.940;19.770;2022-07-05T03:55:35;10.00;;;7.03;;
39128;SDS011;24864;49.940;19.770;2022-07-05T03:58:03;8.13;;;6.85;;
39128;SDS011;24864;49.940;19.770;2022-07-05T04:00:31;9.32;;;8.30;;
39128;SDS011;24864;49.940;19.770;2022-07-05T04:03:00;8.50;;;7.70;;
39128;SDS011;24864;49.940;19.770;2022-07-05T04:05:28;8.57;;;7.32;;
39128;SDS011;24864;49.940;19.770;2022-07-05T04:07:56;9.20;;;6.72;;
39128;SDS011;24864;49.940;19.770;2022-07-05T04:10:26;9.55;;;8.00;;
39128;SDS011;24864;49.940;19.770;2022-07-05T04:12:54;8.32;;;7.03;;
39128;SDS011;24864;49.940;19.770;2022-07-05T04:15:22;8.57;;;7.18;;
39128;SDS011;24864;49.940;19.770;2022-07-05T04:17:51;10.77;;;7.57;;
39128;SDS011;24864;49.940;19.770;2022-07-05T04:20:20;9.13;;;7.70;;
39128;SDS011;24864;49.940;19.770;2022-07-05T04:22:48;8.30;;;7.50;;
39128;SDS011;24864;49.940;19.770;2022-07-05T04:25:17;8.93;;;8.02;;
39128;SDS011;24864;49.940;19.770;2022-07-05T04:27:48;8.02;;;7.28;;
39128;SDS011;24864;49.940;19.770;2022-07-05T04:30:17;8.73;;;7.15;;
39128;SDS011;24864;49.940;19.770;2022-07-05T04:32:47;11.30;;;7.25;;
39128;SDS011;24864;49.940;19.770;2022-07-05T04:35:15;10.80;;;7.35;;
39128;SDS011;24864;49.940;19.770;2022-07-05T04:37:43;7.97;;;6.90;;
39128;SDS011;24864;49.940;19.770;2022-07-05T04:40:12;7.47;;;5.82;;
39128;SDS011;24864;49.940;19.770;2022-07-05T04:42:40;7.70;;;6.90;;
39128;SDS011;24864;49.940;19.770;2022-07-05T04:45:10;8.00;;;6.70;;
39128;SDS011;24864;49.940;19.770;2022-07-05T04:47:38;7.82;;;7.13;;
39128;SDS011;24864;49.940;19.770;2022-07-05T04:50:06;7.82;;;7.13;;
39128;SDS011;24864;49.940;19.770;2022-07-05T04:52:35;7.38;;;6.38;;
39128;SDS011;24864;49.940;19.770;2022-07-05T04:55:03;9.80;;;7.43;;
39128;SDS011;24864;49.940;19.770;2022-07-05T04:57:35;7.85;;;7.07;;
39128;SDS011;24864;49.940;19.770;2022-07-05T05:00:05;7.72;;;7.03;;
39128;SDS011;24864;49.940;19.770;2022-07-05T05:02:35;8.23;;;6.38;;
39128;SDS011;24864;49.940;19.770;2022-07-05T05:05:03;12.32;;;6.82;;
39128;SDS011;24864;49.940;19.770;2022-07-05T05:07:31;8.20;;;6.70;;
39128;SDS011;24864;49.940;19.770;2022-07-05T05:10:03;8.25;;;6.53;;
39128;SDS011;24864;49.940;19.770;2022-07-05T05:12:32;8.95;;;7.43;;
39128;SDS011;24864;49.940;19.770;2022-07-05T05:15:00;8.10;;;7.30;;
39128;SDS011;24864;49.940;19.770;2022-07-05T05:17:35;7.15;;;6.13;;
39128;SDS011;24864;49.940;19.770;2022-07-05T05:20:05;7.07;;;6.35;;
39128;SDS011;24864;49.940;19.770;2022-07-05T05:22:37;7.72;;;7.03;;
39128;SDS011;24864;49.940;19.770;2022-07-05T05:25:06;9.48;;;6.72;;
39128;SDS011;24864;49.940;19.770;2022-07-05T05:27:35;9.68;;;6.25;;
39128;SDS011;24864;49.940;19.770;2022-07-05T05:30:03;7.60;;;5.97;;
39128;SDS011;24864;49.940;19.770;2022-07-05T05:32:32;12.35;;;7.25;;
39128;SDS011;24864;49.940;19.770;2022-07-05T05:35:01;7.78;;;6.78;;
39128;SDS011;24864;49.940;19.770;2022-07-05T05:37:29;9.13;;;6.63;;
39128;SDS011;24864;49.940;19.770;2022-07-05T05:39:57;8.43;;;7.30;;
39128;SDS011;24864;49.940;19.770;2022-07-05T05:42:25;9.52;;;8.10;;
39128;SDS011;24864;49.940;19.770;2022-07-05T05:44:53;9.80;;;7.80;;
39128;SDS011;24864;49.940;19.770;2022-07-05T05:47:21;10.65;;;7.50;;
39128;SDS011;24864;49.940;19.770;2022-07-05T05:49:49;9.68;;;8.77;;
39128;SDS011;24864;49.940;19.770;2022-07-05T05:52:18;9.27;;;8.38;;
39128;SDS011;24864;49.940;19.770;2022-07-05T05:54:46;9.82;;;8.82;;
39128;SDS011;24864;49.940;19.770;2022-07-05T05:57:14;9.15;;;8.35;;
39128;SDS011;24864;49.940;19.770;2022-07-05T05:59:42;8.13;;;7.43;;
39128;SDS011;24864;49.940;19.770;2022-07-05T06:02:10;12.60;;;7.50;;
39128;SDS011;24864;49.940;19.770;2022-07-05T06:04:38;10.43;;;8.25;;
39128;SDS011;24864;49.940;19.770;2022-07-05T06:07:06;10.60;;;7.38;;
39128;SDS011;24864;49.940;19.770;2022-07-05T06:09:35;14.10;;;9.02;;
39128;SDS011;24864;49.940;19.770;2022-07-05T06:12:04;14.75;;;9.35;;
39128;SDS011;24864;49.940;19.770;2022-07-05T06:14:31;10.73;;;9.27;;
39128;SDS011;24864;49.940;19.770;2022-07-05T06:17:00;14.52;;;10.73;;
39128;SDS011;24864;49.940;19.770;2022-07-05T06:19:28;20.08;;;12.50;;
39128;SDS011;24864;49.940;19.770;2022-07-05T06:21:55;16.65;;;12.40;;
39128;SDS011;24864;49.940;19.770;2022-07-05T06:24:26;14.32;;;12.38;;
39128;SDS011;24864;49.940;19.770;2022-07-05T06:26:56;16.48;;;12.73;;
39128;SDS011;24864;49.940;19.770;2022-07-05T06:29:23;22.05;;;13.73;;
39128;SDS011;24864;49.940;19.770;2022-07-05T06:31:51;13.57;;;12.23;;
39128;SDS011;24864;49.940;19.770;2022-07-05T06:34:19;15.82;;;13.45;;
39128;SDS011;24864;49.940;19.770;2022-07-05T06:36:47;16.42;;;13.48;;
39128;SDS011;24864;49.940;19.770;2022-07-05T06:39:15;14.80;;;13.27;;
39128;SDS011;24864;49.940;19.770;2022-07-05T06:41:43;17.65;;;14.40;;
39128;SDS011;24864;49.940;19.770;2022-07-05T06:44:12;19.77;;;14.43;;
39128;SDS011;24864;49.940;19.770;2022-07-05T06:47:00;13.90;;;12.75;;
39128;SDS011;24864;49.940;19.770;2022-07-05T06:49:28;14.30;;;12.50;;
39128;SDS011;24864;49.940;19.770;2022-07-05T06:51:56;15.52;;;13.77;;
39128;SDS011;24864;49.940;19.770;2022-07-05T06:54:24;15.75;;;13.40;;
39128;SDS011;24864;49.940;19.770;2022-07-05T06:57:12;15.55;;;13.93;;
39128;SDS011;24864;49.940;19.770;2022-07-05T06:59:58;17.30;;;13.00;;
39128;SDS011;24864;49.940;19.770;2022-07-05T07:02:27;13.27;;;11.98;;
39128;SDS011;24864;49.940;19.770;2022-07-05T07:04:56;14.25;;;12.90;;
39128;SDS011;24864;49.940;19.770;2022-07-05T07:07:41;12.85;;;11.75;;
39128;SDS011;24864;49.940;19.770;2022-07-05T07:10:27;12.40;;;11.10;;
39128;SDS011;24864;49.940;19.770;2022-07-05T07:12:56;15.15;;;11.52;;
39128;SDS011;24864;49.940;19.770;2022-07-05T07:15:25;11.63;;;10.63;;
39128;SDS011;24864;49.940;19.770;2022-07-05T07:17:53;12.35;;;10.35;;
39128;SDS011;24864;49.940;19.770;2022-07-05T07:20:22;12.98;;;11.60;;
39128;SDS011;24864;49.940;19.770;2022-07-05T07:22:50;13.35;;;10.52;;
39128;SDS011;24864;49.940;19.770;2022-07-05T07:25:18;11.20;;;10.30;;
39128;SDS011;24864;49.940;19.770;2022-07-05T07:27:47;12.88;;;11.60;;
39128;SDS011;24864;49.940;19.770;2022-07-05T07:30:16;12.60;;;11.52;;
39128;SDS011;24864;49.940;19.770;2022-07-05T07:32:49;11.57;;;10.57;;
39128;SDS011;24864;49.940;19.770;2022-07-05T07:35:17;12.15;;;11.05;;
39128;SDS011;24864;49.940;19.770;2022-07-05T07:37:45;13.07;;;11.93;;
39128;SDS011;24864;49.940;19.770;2022-07-05T07:40:14;12.75;;;11.65;;
39128;SDS011;24864;49.940;19.770;2022-07-05T07:42:42;12.60;;;11.10;;
39128;SDS011;24864;49.940;19.770;2022-07-05T07:45:10;12.65;;;11.52;;
39128;SDS011;24864;49.940;19.770;2022-07-05T07:47:38;12.70;;;11.27;;
39128;SDS011;24864;49.940;19.770;2022-07-05T07:50:08;12.60;;;11.43;;
39128;SDS011;24864;49.940;19.770;2022-07-05T07:52:36;13.10;;;11.88;;
39128;SDS011;24864;49.940;19.770;2022-07-05T07:55:05;15.73;;;13.23;;
39128;SDS011;24864;49.940;19.770;2022-07-05T07:57:34;14.68;;;13.20;;
39128;SDS011;24864;49.940;19.770;2022-07-05T08:00:02;13.07;;;11.75;;
39128;SDS011;24864;49.940;19.770;2022-07-05T08:02:31;17.70;;;14.65;;
39128;SDS011;24864;49.940;19.770;2022-07-05T08:04:59;15.27;;;13.75;;
39128;SDS011;24864;49.940;19.770;2022-07-05T08:07:29;17.90;;;16.00;;
39128;SDS011;24864;49.940;19.770;2022-07-05T08:09:58;15.20;;;13.82;;
39128;SDS011;24864;49.940;19.770;2022-07-05T08:12:26;17.25;;;15.45;;
39128;SDS011;24864;49.940;19.770;2022-07-05T08:14:54;18.77;;;16.05;;
39128;SDS011;24864;49.940;19.770;2022-07-05T08:17:22;18.00;;;16.13;;
39128;SDS011;24864;49.940;19.770;2022-07-05T08:19:50;21.80;;;17.02;;
39128;SDS011;24864;49.940;19.770;2022-07-05T08:22:37;18.55;;;16.75;;
39128;SDS011;24864;49.940;19.770;2022-07-05T08:25:06;18.20;;;16.40;;
39128;SDS011;24864;49.940;19.770;2022-07-05T08:27:34;15.60;;;14.25;;
39128;SDS011;24864;49.940;19.770;2022-07-05T08:30:02;16.35;;;14.02;;
39128;SDS011;24864;49.940;19.770;2022-07-05T08:32:31;15.90;;;14.13;;
39128;SDS011;24864;49.940;19.770;2022-07-05T08:34:59;16.15;;;14.68;;
39128;SDS011;24864;49.940;19.770;2022-07-05T08:37:27;20.55;;;13.23;;
39128;SDS011;24864;49.940;19.770;2022-07-05T08:39:56;19.48;;;16.20;;
39128;SDS011;24864;49.940;19.770;2022-07-05T08:42:24;20.38;;;16.63;;
39128;SDS011;24864;49.940;19.770;2022-07-05T08:44:51;16.42;;;14.82;;
39128;SDS011;24864;49.940;19.770;2022-07-05T08:47:22;16.40;;;14.65;;
39128;SDS011;24864;49.940;19.770;2022-07-05T08:49:50;17.42;;;15.73;;
39128;SDS011;24864;49.940;19.770;2022-07-05T08:52:20;17.90;;;16.08;;
39128;SDS011;24864;49.940;19.770;2022-07-05T08:54:49;19.70;;;16.45;;
39128;SDS011;24864;49.940;19.770;2022-07-05T08:57:19;17.38;;;15.60;;
39128;SDS011;24864;49.940;19.770;2022-07-05T08:59:47;16.83;;;15.10;;
39128;SDS011;24864;49.940;19.770;2022-07-05T09:02:16;14.95;;;13.55;;
39128;SDS011;24864;49.940;19.770;2022-07-05T09:04:44;13.63;;;12.32;;
39128;SDS011;24864;49.940;19.770;2022-07-05T09:07:15;17.95;;;11.95;;
39128;SDS011;24864;49.940;19.770;2022-07-05T09:09:46;13.65;;;12.38;;
39128;SDS011;24864;49.940;19.770;2022-07-05T09:12:19;16.02;;;14.38;;
39128;SDS011;24864;49.940;19.770;2022-07-05T09:14:52;18.60;;;15.90;;
39128;SDS011;24864;49.940;19.770;2022-07-05T09:17:21;15.25;;;14.00;;
39128;SDS011;24864;49.940;19.770;2022-07-05T09:20:05;19.70;;;14.77;;
39128;SDS011;24864;49.940;19.770;2022-07-05T09:22:41;18.02;;;13.73;;
39128;SDS011;24864;49.940;19.770;2022-07-05T09:25:17;16.55;;;14.85;;
39128;SDS011;24864;49.940;19.770;2022-07-05T09:27:53;15.35;;;13.68;;
39128;SDS011;24864;49.940;19.770;2022-07-05T09:30:26;16.65;;;14.85;;
39128;SDS011;24864;49.940;19.770;2022-07-05T09:33:02;15.70;;;14.23;;
39128;SDS011;24864;49.940;19.770;2022-07-05T09:35:35;15.60;;;13.77;;
39128;SDS011;24864;49.940;19.770;2022-07-05T09:38:05;15.18;;;13.57;;
39128;SDS011;24864;49.940;19.770;2022-07-05T09:40:45;15.60;;;13.30;;
39128;SDS011;24864;49.940;19.770;2022-07-05T09:43:17;15.82;;;14.23;;
39128;SDS011;24864;49.940;19.770;2022-07-05T09:45:50;15.40;;;13.97;;
39128;SDS011;24864;49.940;19.770;2022-07-05T09:48:19;14.73;;;13.23;;
39128;SDS011;24864;49.940;19.770;2022-07-05T09:51:06;14.38;;;13.07;;
39128;SDS011;24864;49.940;19.770;2022-07-05T09:53:57;14.63;;;13.27;;
39128;SDS011;24864;49.940;19.770;2022-07-05T09:56:29;15.25;;;13.85;;
39128;SDS011;24864;49.940;19.770;2022-07-05T09:59:16;18.13;;;14.85;;
39128;SDS011;24864;49.940;19.770;2022-07-05T10:01:46;16.20;;;14.35;;
39128;SDS011;24864;49.940;19.770;2022-07-05T10:04:15;15.18;;;13.60;;
39128;SDS011;24864;49.940;19.770;2022-07-05T10:06:43;17.58;;;15.60;;
39128;SDS011;24864;49.940;19.770;2022-07-05T10:09:11;15.55;;;14.05;;
39128;SDS011;24864;49.940;19.770;2022-07-05T10:11:42;16.15;;;14.75;;
39128;SDS011;24864;49.940;19.770;2022-07-05T10:14:11;19.60;;;14.80;;
39128;SDS011;24864;49.940;19.770;2022-07-05T10:16:45;15.80;;;14.23;;
39128;SDS011;24864;49.940;19.770;2022-07-05T10:19:19;16.77;;;14.95;;
39128;SDS011;24864;49.940;19.770;2022-07-05T10:21:48;16.45;;;14.70;;
39128;SDS011;24864;49.940;19.770;2022-07-05T10:24:37;16.08;;;14.63;;
39128;SDS011;24864;49.940;19.770;2022-07-05T10:27:06;16.00;;;14.35;;
39128;SDS011;24864;49.940;19.770;2022-07-05T10:29:37;14.30;;;12.93;;
39128;SDS011;24864;49.940;19.770;2022-07-05T10:32:07;12.68;;;11.68;;
39128;SDS011;24864;49.940;19.770;2022-07-05T10:34:37;14.10;;;12.75;;
39128;SDS011;24864;49.940;19.770;2022-07-05T10:37:27;13.90;;;12.63;;
39128;SDS011;24864;49.940;19.770;2022-07-05T10:39:57;12.80;;;11.60;;
39128;SDS011;24864;49.940;19.770;2022-07-05T10:42:28;12.93;;;11.68;;
39128;SDS011;24864;49.940;19.770;2022-07-05T10:45:01;13.55;;;12.35;;
39128;SDS011;24864;49.940;19.770;2022-07-05T10:47:29;12.70;;;11.48;;
39128;SDS011;24864;49.940;19.770;2022-07-05T10:49:59;12.30;;;11.13;;
39128;SDS011;24864;49.940;19.770;2022-07-05T10:52:29;13.52;;;11.15;;
39128;SDS011;24864;49.940;19.770;2022-07-05T11:05:51;9.33;;;8.53;;
39128;SDS011;24864;49.940;19.770;2022-07-05T11:08:21;9.93;;;9.00;;
39128;SDS011;24864;49.940;19.770;2022-07-05T11:13:39;8.30;;;7.70;;
39128;SDS011;24864;49.940;19.770;2022-07-05T11:16:19;9.18;;;8.38;;
39128;SDS011;24864;49.940;19.770;2022-07-05T11:18:48;12.50;;;11.35;;
39128;SDS011;24864;49.940;19.770;2022-07-05T11:21:19;13.38;;;12.18;;
39128;SDS011;24864;49.940;19.770;2022-07-05T11:23:48;11.68;;;10.68;;
39128;SDS011;24864;49.940;19.770;2022-07-05T11:26:24;9.73;;;8.88;;
39128;SDS011;24864;49.940;19.770;2022-07-05T11:28:52;11.35;;;10.45;;
39128;SDS011;24864;49.940;19.770;2022-07-05T11:34:12;10.65;;;9.85;;
39128;SDS011;24864;49.940;19.770;2022-07-05T11:36:42;10.82;;;9.65;;
39128;SDS011;24864;49.940;19.770;2022-07-05T11:39:30;11.50;;;10.70;;
39128;SDS011;24864;49.940;19.770;2022-07-05T11:41:58;11.63;;;10.65;;
39128;SDS011;24864;49.940;19.770;2022-07-05T11:44:26;11.68;;;10.68;;
39128;SDS011;24864;49.940;19.770;2022-07-05T11:47:19;15.27;;;12.20;;
39128;SDS011;24864;49.940;19.770;2022-07-05T11:49:52;13.55;;;12.38;;
39128;SDS011;24864;49.940;19.770;2022-07-05T11:52:25;15.40;;;14.10;;
39128;SDS011;24864;49.940;19.770;2022-07-05T11:54:54;21.10;;;18.75;;
39128;SDS011;24864;49.940;19.770;2022-07-05T11:57:22;21.50;;;18.45;;
39128;SDS011;24864;49.940;19.770;2022-07-05T11:59:50;22.75;;;20.90;;
39128;SDS011;24864;49.940;19.770;2022-07-05T12:02:18;26.50;;;23.77;;
39128;SDS011;24864;49.940;19.770;2022-07-05T12:04:47;27.67;;;24.80;;
39128;SDS011;24864;49.940;19.770;2022-07-05T12:07:23;34.80;;;29.17;;
39128;SDS011;24864;49.940;19.770;2022-07-05T12:09:53;33.67;;;30.30;;
39128;SDS011;24864;49.940;19.770;2022-07-05T12:12:39;40.28;;;36.13;;
39128;SDS011;24864;49.940;19.770;2022-07-05T12:15:10;43.67;;;39.33;;
39128;SDS011;24864;49.940;19.770;2022-07-05T12:17:40;46.60;;;41.78;;
39128;SDS011;24864;49.940;19.770;2022-07-05T12:20:10;50.28;;;45.00;;
39128;SDS011;24864;49.940;19.770;2022-07-05T12:22:41;45.20;;;40.70;;
39128;SDS011;24864;49.940;19.770;2022-07-05T12:25:11;39.33;;;35.27;;
39128;SDS011;24864;49.940;19.770;2022-07-05T12:27:42;41.78;;;37.53;;
39128;SDS011;24864;49.940;19.770;2022-07-05T12:30:11;45.33;;;40.45;;
39128;SDS011;24864;49.940;19.770;2022-07-05T12:32:55;44.75;;;39.95;;
39128;SDS011;24864;49.940;19.770;2022-07-05T12:35:26;43.75;;;39.08;;
39128;SDS011;24864;49.940;19.770;2022-07-05T12:38:00;45.10;;;40.10;;
39128;SDS011;24864;49.940;19.770;2022-07-05T12:40:30;47.38;;;42.50;;
39128;SDS011;24864;49.940;19.770;2022-07-05T12:43:02;52.42;;;43.30;;
39128;SDS011;24864;49.940;19.770;2022-07-05T12:45:32;44.65;;;39.80;;
39128;SDS011;24864;49.940;19.770;2022-07-05T12:48:01;46.97;;;40.33;;
39128;SDS011;24864;49.940;19.770;2022-07-05T12:50:43;47.60;;;38.60;;
39128;SDS011;24864;49.940;19.770;2022-07-05T12:53:34;47.85;;;39.47;;
39128;SDS011;24864;49.940;19.770;2022-07-05T12:56:22;44.05;;;39.35;;
39128;SDS011;24864;49.940;19.770;2022-07-05T12:59:28;39.63;;;35.63;;
39128;SDS011;24864;49.940;19.770;2022-07-05T13:01:56;39.03;;;35.22;;
39128;SDS011;24864;49.940;19.770;2022-07-05T13:04:24;39.25;;;34.50;;
39128;SDS011;24864;49.940;19.770;2022-07-05T13:06:53;30.15;;;27.05;;
39128;SDS011;24864;49.940;19.770;2022-07-05T13:09:33;26.50;;;24.00;;
39128;SDS011;24864;49.940;19.770;2022-07-05T13:12:06;30.60;;;27.60;;
39128;SDS011;24864;49.940;19.770;2022-07-05T13:14:36;31.65;;;28.27;;
39128;SDS011;24864;49.940;19.770;2022-07-05T13:17:06;30.25;;;27.33;;
39128;SDS011;24864;49.940;19.770;2022-07-05T13:19:35;26.75;;;23.88;;
39128;SDS011;24864;49.940;19.770;2022-07-05T13:22:04;23.70;;;21.40;;
39128;SDS011;24864;49.940;19.770;2022-07-05T13:24:35;23.92;;;21.73;;
39128;SDS011;24864;49.940;19.770;2022-07-05T13:27:04;19.88;;;18.13;;
39128;SDS011;24864;49.940;19.770;2022-07-05T13:29:33;22.02;;;19.88;;
39128;SDS011;24864;49.940;19.770;2022-07-05T13:32:02;17.75;;;16.35;;
39128;SDS011;24864;49.940;19.770;2022-07-05T13:34:30;18.38;;;16.67;;
39128;SDS011;24864;49.940;19.770;2022-07-05T13:36:59;22.58;;;20.40;;
39128;SDS011;24864;49.940;19.770;2022-07-05T13:39:28;23.20;;;20.85;;
39128;SDS011;24864;49.940;19.770;2022-07-05T13:41:57;19.65;;;18.00;;
39128;SDS011;24864;49.940;19.770;2022-07-05T13:44:26;19.92;;;18.08;;
39128;SDS011;24864;49.940;19.770;2022-07-05T13:46:54;18.90;;;17.15;;
39128;SDS011;24864;49.940;19.770;2022-07-05T13:49:22;20.52;;;18.80;;
39128;SDS011;24864;49.940;19.770;2022-07-05T13:51:50;22.50;;;20.27;;
39128;SDS011;24864;49.940;19.770;2022-07-05T13:54:18;21.27;;;19.17;;
39128;SDS011;24864;49.940;19.770;2022-07-05T13:56:45;21.48;;;19.58;;
39128;SDS011;24864;49.940;19.770;2022-07-05T13:59:20;21.08;;;18.85;;
39128;SDS011;24864;49.940;19.770;2022-07-05T14:01:48;23.13;;;20.95;;
39128;SDS011;24864;49.940;19.770;2022-07-05T14:04:16;21.40;;;19.15;;
39128;SDS011;24864;49.940;19.770;2022-07-05T14:06:44;19.75;;;17.75;;
39128;SDS011;24864;49.940;19.770;2022-07-05T14:09:12;20.35;;;18.52;;
39128;SDS011;24864;49.940;19.770;2022-07-05T14:11:41;22.60;;;20.25;;
39128;SDS011;24864;49.940;19.770;2022-07-05T14:14:09;20.27;;;18.27;;
39128;SDS011;24864;49.940;19.770;2022-07-05T14:16:40;17.42;;;16.02;;
39128;SDS011;24864;49.940;19.770;2022-07-05T14:19:08;18.40;;;16.52;;
39128;SDS011;24864;49.940;19.770;2022-07-05T14:21:37;17.23;;;15.73;;
39128;SDS011;24864;49.940;19.770;2022-07-05T14:24:05;16.65;;;15.20;;
39128;SDS011;24864;49.940;19.770;2022-07-05T14:26:33;14.02;;;12.63;;
39128;SDS011;24864;49.940;19.770;2022-07-05T14:29:01;14.38;;;12.77;;
39128;SDS011;24864;49.940;19.770;2022-07-05T14:31:29;12.38;;;11.38;;
39128;SDS011;24864;49.940;19.770;2022-07-05T14:34:00;13.63;;;12.23;;
39128;SDS011;24864;49.940;19.770;2022-07-05T14:36:28;11.75;;;10.55;;
39128;SDS011;24864;49.940;19.770;2022-07-05T14:38:56;9.57;;;8.60;;
39128;SDS011;24864;49.940;19.770;2022-07-05T14:41:25;9.52;;;7.97;;
39128;SDS011;24864;49.940;19.770;2022-07-05T14:43:54;8.70;;;7.97;;
39128;SDS011;24864;49.940;19.770;2022-07-05T14:46:22;8.85;;;8.05;;
39128;SDS011;24864;49.940;19.770;2022-07-05T14:48:50;9.00;;;7.78;;
39128;SDS011;24864;49.940;19.770;2022-07-05T14:51:19;10.73;;;8.15;;
39128;SDS011;24864;49.940;19.770;2022-07-05T14:53:47;11.40;;;7.95;;
39128;SDS011;24864;49.940;19.770;2022-07-05T14:56:15;8.10;;;7.28;;
39128;SDS011;24864;49.940;19.770;2022-07-05T14:58:43;8.73;;;7.40;;
39128;SDS011;24864;49.940;19.770;2022-07-05T15:01:11;7.57;;;6.88;;